createdAt,value
2023-05-17T00:02:19.454Z,11.90
2023-05-17T00:04:46.491Z,11.90
2023-05-17T00:07:13.445Z,11.90
2023-05-17T00:09:40.481Z,11.80
2023-05-17T00:12:07.555Z,11.80
2023-05-17T00:14:34.602Z,11.80
2023-05-17T00:17:01.551Z,11.80
2023-05-17T00:19:28.605Z,11.80
2023-05-17T00:21:55.785Z,11.80
2023-05-17T00:24:22.968Z,11.80
2023-05-17T00:26:49.980Z,11.70
2023-05-17T00:29:17.182Z,11.70
2023-05-17T00:31:44.242Z,11.60
2023-05-17T00:34:11.335Z,11.70
2023-05-17T00:36:38.295Z,11.60
2023-05-17T00:39:05.243Z,11.60
2023-05-17T00:41:32.213Z,11.60
2023-05-17T00:43:59.261Z,11.60
2023-05-17T00:46:26.289Z,11.60
2023-05-17T00:48:53.335Z,11.50
2023-05-17T00:51:21.123Z,11.50
2023-05-17T00:53:52.474Z,11.50
2023-05-17T00:56:19.480Z,11.50
2023-05-17T00:58:46.730Z,11.50
2023-05-17T01:01:13.816Z,11.40
2023-05-17T01:03:41.034Z,11.40
2023-05-17T01:06:08.248Z,11.40
2023-05-17T01:08:35.520Z,11.40
2023-05-17T01:11:11.833Z,11.40
2023-05-17T01:13:38.737Z,11.40
2023-05-17T01:16:09.130Z,11.40
2023-05-17T01:18:41.690Z,11.30
2023-05-17T01:21:16.309Z,11.30
2023-05-17T01:23:51.058Z,11.30
2023-05-17T01:26:31.928Z,11.30
2023-05-17T01:29:00.092Z,11.30
2023-05-17T01:31:27.574Z,11.20
2023-05-17T01:33:58.877Z,11.20
2023-05-17T01:36:28.082Z,11.20
2023-05-17T01:38:55.000Z,11.20
2023-05-17T01:41:22.009Z,11.20
2023-05-17T01:43:52.100Z,11.20
2023-05-17T01:46:27.840Z,11.10
2023-05-17T01:49:09.070Z,11.20
2023-05-17T01:51:44.556Z,11.10
2023-05-17T01:54:12.336Z,11.10
2023-05-17T01:56:42.852Z,11.10
2023-05-17T01:59:11.144Z,11.10
2023-05-17T02:01:39.438Z,11.10
2023-05-17T02:04:06.454Z,11.00
2023-05-17T02:06:33.548Z,11.10
2023-05-17T02:09:02.928Z,11.00
2023-05-17T02:13:58.921Z,11.00
2023-05-17T02:16:26.040Z,11.00
2023-05-17T02:18:53.356Z,11.00
2023-05-17T02:23:47.864Z,11.00
2023-05-17T02:26:14.836Z,11.00
2023-05-17T02:28:41.815Z,10.90
2023-05-17T02:31:09.446Z,10.90
2023-05-17T02:33:37.578Z,10.90
2023-05-17T02:36:06.588Z,10.90
2023-05-17T02:38:34.661Z,10.90
2023-05-17T02:41:02.697Z,10.90
2023-05-17T02:43:31.762Z,10.90
2023-05-17T02:45:58.757Z,10.90
2023-05-17T02:48:25.883Z,10.80
2023-05-17T02:50:53.069Z,10.80
2023-05-17T02:53:19.981Z,10.80
2023-05-17T02:55:47.573Z,10.80
2023-05-17T02:58:14.891Z,10.80
2023-05-17T03:00:45.036Z,10.80
2023-05-17T03:03:12.581Z,10.80
2023-05-17T03:05:39.816Z,10.80
2023-05-17T03:08:06.990Z,10.70
2023-05-17T03:10:34.041Z,10.80
2023-05-17T03:13:01.291Z,10.70
2023-05-17T03:15:32.857Z,10.70
2023-05-17T03:18:00.217Z,10.70
2023-05-17T03:20:27.335Z,10.70
2023-05-17T03:22:54.287Z,10.70
2023-05-17T03:25:21.289Z,10.70
2023-05-17T03:27:48.299Z,10.70
2023-05-17T03:30:15.386Z,10.70
2023-05-17T03:32:42.566Z,10.80
2023-05-17T03:35:09.696Z,10.80
2023-05-17T03:37:38.158Z,10.80
2023-05-17T03:40:06.229Z,10.80
2023-05-17T03:42:33.165Z,10.80
2023-05-17T03:45:01.256Z,10.80
2023-05-17T03:47:28.291Z,10.80
2023-05-17T03:49:55.269Z,10.90
2023-05-17T03:52:22.291Z,10.90
2023-05-17T03:54:49.239Z,10.90
2023-05-17T03:57:16.754Z,10.90
2023-05-17T03:59:44.696Z,10.90
2023-05-17T04:02:11.851Z,10.90
2023-05-17T04:04:38.929Z,10.90
2023-05-17T04:07:06.013Z,11.00
2023-05-17T04:09:35.182Z,11.00
2023-05-17T04:12:02.245Z,11.00
2023-05-17T04:14:29.923Z,11.00
2023-05-17T04:16:58.292Z,11.00
2023-05-17T04:19:25.889Z,11.00
2023-05-17T04:21:52.936Z,11.10
2023-05-17T04:24:22.732Z,11.00
2023-05-17T04:26:49.751Z,11.00
2023-05-17T04:29:18.910Z,11.00
2023-05-17T04:31:49.013Z,11.10
2023-05-17T04:34:16.948Z,11.00
2023-05-17T04:36:44.063Z,11.00
2023-05-17T04:39:11.043Z,11.00
2023-05-17T04:41:39.448Z,11.10
2023-05-17T04:44:18.817Z,11.10
2023-05-17T04:46:45.978Z,11.10
2023-05-17T04:49:14.366Z,11.10
2023-05-17T04:51:42.158Z,11.10
2023-05-17T04:54:10.667Z,11.10
2023-05-17T04:56:37.890Z,11.10
2023-05-17T04:59:09.358Z,11.10
2023-05-17T05:01:36.470Z,11.10
2023-05-17T05:04:07.339Z,11.10
2023-05-17T05:06:39.754Z,11.10
2023-05-17T05:09:07.388Z,11.10
2023-05-17T05:11:36.564Z,11.10
2023-05-17T05:14:06.269Z,11.10
2023-05-17T05:16:33.822Z,11.20
2023-05-17T05:19:01.056Z,11.20
2023-05-17T05:21:28.587Z,11.20
2023-05-17T05:23:56.317Z,11.20
2023-05-17T05:26:23.344Z,11.20
2023-05-17T05:28:51.384Z,11.20
2023-05-17T05:31:19.137Z,11.30
2023-05-17T05:33:52.025Z,11.20
2023-05-17T05:36:19.509Z,11.30
2023-05-17T05:38:48.167Z,11.40
2023-05-17T05:41:15.987Z,11.40
2023-05-17T05:43:43.077Z,11.40
2023-05-17T05:46:09.981Z,11.50
2023-05-17T05:48:39.677Z,11.50
2023-05-17T05:51:07.612Z,11.50
2023-05-17T05:53:36.357Z,11.60
2023-05-17T05:56:03.661Z,11.60
2023-05-17T05:58:31.608Z,11.70
2023-05-17T06:01:00.341Z,11.70
2023-05-17T06:03:27.300Z,11.80
2023-05-17T06:05:57.413Z,11.80
2023-05-17T06:08:24.451Z,11.90
2023-05-17T06:10:51.430Z,11.90
2023-05-17T06:13:18.443Z,11.90
2023-05-17T06:15:46.994Z,12.00
2023-05-17T06:18:14.019Z,12.00
2023-05-17T06:20:41.123Z,12.10
2023-05-17T06:23:08.217Z,12.10
2023-05-17T06:25:35.356Z,12.20
2023-05-17T06:28:03.490Z,12.30
2023-05-17T06:30:31.429Z,12.30
2023-05-17T06:32:58.783Z,12.40
2023-05-17T06:35:25.888Z,12.40
2023-05-17T06:37:52.953Z,12.50
2023-05-17T06:40:19.864Z,12.60
2023-05-17T06:42:46.838Z,12.60
2023-05-17T06:45:15.880Z,12.70
2023-05-17T06:47:43.263Z,12.70
2023-05-17T06:50:10.707Z,12.80
2023-05-17T06:52:37.629Z,12.90
2023-05-17T06:55:04.823Z,12.90
2023-05-17T06:57:31.999Z,13.00
2023-05-17T06:59:59.029Z,13.00
2023-05-17T07:02:26.135Z,13.10
2023-05-17T07:04:53.239Z,13.10
2023-05-17T07:07:20.620Z,13.20
2023-05-17T07:09:47.727Z,13.20
2023-05-17T07:12:14.650Z,13.30
2023-05-17T07:14:41.628Z,13.40
2023-05-17T07:17:08.662Z,13.50
2023-05-17T07:19:36.019Z,13.60
2023-05-17T07:22:03.134Z,13.60
2023-05-17T07:24:30.107Z,13.60
2023-05-17T07:26:57.096Z,13.60
2023-05-17T07:29:24.635Z,13.70
2023-05-17T07:31:51.616Z,13.70
2023-05-17T07:34:18.545Z,13.70
2023-05-17T07:36:45.495Z,13.80
2023-05-17T07:39:12.836Z,13.80
2023-05-17T07:41:39.810Z,13.90
2023-05-17T07:44:06.756Z,13.90
2023-05-17T07:46:33.852Z,13.90
2023-05-17T07:49:01.347Z,14.00
2023-05-17T07:51:28.397Z,14.00
2023-05-17T07:53:55.287Z,14.10
2023-05-17T07:56:22.465Z,14.10
2023-05-17T07:58:59.816Z,14.20
2023-05-17T08:01:27.927Z,14.20
2023-05-17T08:03:55.427Z,14.20
2023-05-17T08:06:22.559Z,14.30
2023-05-17T08:08:50.404Z,14.30
2023-05-17T08:11:23.974Z,14.30
2023-05-17T08:13:53.085Z,14.30
2023-05-17T08:16:20.060Z,14.40
2023-05-17T08:18:47.318Z,14.40
2023-05-17T08:21:14.422Z,14.50
2023-05-17T08:23:41.935Z,14.50
2023-05-17T08:26:08.905Z,14.60
2023-05-17T08:28:35.881Z,14.60
2023-05-17T08:31:04.285Z,14.70
2023-05-17T08:33:31.446Z,14.80
2023-05-17T08:36:01.470Z,14.90
2023-05-17T08:38:28.526Z,15.00
2023-05-17T08:40:56.236Z,15.10
2023-05-17T08:43:25.174Z,15.10
2023-05-17T08:45:54.520Z,15.20
2023-05-17T08:48:21.941Z,15.30
2023-05-17T08:50:50.725Z,15.40
2023-05-17T08:53:24.373Z,15.50
2023-05-17T08:55:53.871Z,15.50
2023-05-17T08:58:25.876Z,15.60
2023-05-17T09:00:54.366Z,15.60
2023-05-17T09:03:22.606Z,15.60
2023-05-17T09:05:56.324Z,15.70
2023-05-17T09:08:23.391Z,15.70
2023-05-17T09:10:50.774Z,15.80
2023-05-17T09:13:17.720Z,15.90
2023-05-17T09:15:45.288Z,16.00
2023-05-17T09:18:12.761Z,16.10
2023-05-17T09:20:40.180Z,16.20
2023-05-17T09:23:09.239Z,16.20
2023-05-17T09:25:36.512Z,16.30
2023-05-17T09:28:04.597Z,16.30
2023-05-17T09:30:32.731Z,16.30
2023-05-17T09:33:09.623Z,16.30
2023-05-17T09:35:37.453Z,16.50
2023-05-17T09:38:04.273Z,16.60
2023-05-17T09:40:31.411Z,16.60
2023-05-17T09:43:01.979Z,16.60
2023-05-17T09:45:31.739Z,16.70
2023-05-17T09:48:10.974Z,16.70
2023-05-17T09:50:43.266Z,16.70
2023-05-17T09:53:29.462Z,16.70
2023-05-17T09:55:57.560Z,16.70
2023-05-17T09:58:25.023Z,16.80
2023-05-17T10:00:55.839Z,16.90
2023-05-17T10:03:22.856Z,16.90
2023-05-17T10:05:51.019Z,17.00
2023-05-17T10:08:21.480Z,17.20
2023-05-17T10:10:49.662Z,17.60
2023-05-17T10:13:19.571Z,18.30
2023-05-17T10:15:46.798Z,19.00
2023-05-17T10:18:14.398Z,19.80
2023-05-17T10:20:42.046Z,20.60
2023-05-17T10:23:09.964Z,21.30
2023-05-17T10:25:36.919Z,21.80
2023-05-17T10:28:06.597Z,22.20
2023-05-17T10:30:34.100Z,22.20
2023-05-17T10:33:01.903Z,22.10
2023-05-17T10:35:32.574Z,22.00
2023-05-17T10:37:59.528Z,21.70
2023-05-17T10:40:29.492Z,21.50
2023-05-17T10:42:56.773Z,21.20
2023-05-17T10:45:27.360Z,21.10
2023-05-17T10:47:55.282Z,21.20
2023-05-17T10:50:26.974Z,21.50
2023-05-17T10:52:56.454Z,22.10
2023-05-17T10:55:25.200Z,22.60
2023-05-17T10:58:10.670Z,23.00
2023-05-17T11:00:41.388Z,23.30
2023-05-17T11:03:16.857Z,23.20
2023-05-17T11:06:03.659Z,23.10
2023-05-17T11:08:30.720Z,23.00
2023-05-17T11:11:13.018Z,22.80
2023-05-17T11:13:56.251Z,22.60
2023-05-17T11:16:25.644Z,22.40
2023-05-17T11:18:53.960Z,22.20
2023-05-17T11:21:22.449Z,22.30
2023-05-17T11:23:54.751Z,22.50
2023-05-17T11:26:23.264Z,22.90
2023-05-17T11:29:00.140Z,23.50
2023-05-17T11:31:36.832Z,23.90
2023-05-17T11:34:04.500Z,24.10
2023-05-17T11:36:31.900Z,24.10
2023-05-17T11:39:12.080Z,24.10
2023-05-17T11:41:42.522Z,24.00
2023-05-17T11:44:10.212Z,23.90
2023-05-17T11:46:38.114Z,23.60
2023-05-17T11:49:08.318Z,23.50
2023-05-17T11:51:35.377Z,23.30
2023-05-17T11:54:04.191Z,23.10
2023-05-17T11:56:42.665Z,22.80
2023-05-17T11:59:11.078Z,22.60
2023-05-17T12:01:46.105Z,22.50
2023-05-17T12:04:13.387Z,22.20
2023-05-17T12:06:40.745Z,22.00
2023-05-17T12:09:10.922Z,21.70
2023-05-17T12:11:40.915Z,21.50
2023-05-17T12:14:07.893Z,21.50
2023-05-17T12:16:36.330Z,21.20
2023-05-17T12:19:03.510Z,21.20
2023-05-17T12:21:30.786Z,21.00
2023-05-17T12:23:57.769Z,20.90
2023-05-17T12:26:24.698Z,20.90
2023-05-17T12:28:55.044Z,20.80
2023-05-17T12:31:25.017Z,20.80
2023-05-17T12:33:52.646Z,20.70
2023-05-17T12:36:19.822Z,20.70
2023-05-17T12:38:47.422Z,20.70
2023-05-17T12:41:15.980Z,20.60
2023-05-17T12:43:44.572Z,20.70
2023-05-17T12:46:17.789Z,20.70
2023-05-17T12:48:45.058Z,20.80
2023-05-17T12:51:19.533Z,21.00
2023-05-17T12:53:50.596Z,21.20
2023-05-17T12:56:18.505Z,21.30
2023-05-17T12:59:03.284Z,21.40
2023-05-17T13:01:55.558Z,21.50
2023-05-17T13:04:29.623Z,21.40
2023-05-17T13:06:57.724Z,21.30
2023-05-17T13:09:26.101Z,21.20
2023-05-17T13:11:54.312Z,21.10
2023-05-17T13:14:41.868Z,21.00
2023-05-17T13:17:16.603Z,20.80
2023-05-17T13:19:43.744Z,20.60
2023-05-17T13:22:10.973Z,20.50
2023-05-17T13:24:38.573Z,20.50
2023-05-17T13:27:06.133Z,20.40
2023-05-17T13:29:39.578Z,20.30
2023-05-17T13:32:07.942Z,20.20
2023-05-17T13:34:35.128Z,20.10
2023-05-17T13:37:02.117Z,20.10
2023-05-17T13:39:29.276Z,20.10
2023-05-17T13:41:56.302Z,20.10
2023-05-17T13:44:23.229Z,20.00
2023-05-17T13:46:50.247Z,20.10
2023-05-17T13:49:20.009Z,20.00
2023-05-17T13:51:46.962Z,19.90
2023-05-17T13:54:13.961Z,19.80
2023-05-17T13:56:40.854Z,19.70
2023-05-17T13:59:08.061Z,19.60
2023-05-17T14:01:35.613Z,19.60
2023-05-17T14:04:02.672Z,19.40
2023-05-17T14:06:29.968Z,19.30
2023-05-17T14:08:59.347Z,19.30
2023-05-17T14:11:26.395Z,19.20
2023-05-17T14:13:53.331Z,19.10
2023-05-17T14:16:20.419Z,19.10
2023-05-17T14:18:47.473Z,19.10
2023-05-17T14:21:14.498Z,19.00
2023-05-17T14:23:42.038Z,19.10
2023-05-17T14:26:09.521Z,19.10
2023-05-17T14:28:38.272Z,19.10
2023-05-17T14:31:08.597Z,19.10
2023-05-17T14:33:35.929Z,19.10
2023-05-17T14:36:04.129Z,19.10
2023-05-17T14:38:31.557Z,19.10
2023-05-17T14:41:00.717Z,19.10
2023-05-17T14:43:28.183Z,19.10
2023-05-17T14:45:55.155Z,19.10
2023-05-17T14:48:22.501Z,19.10
2023-05-17T14:50:49.795Z,19.10
2023-05-17T14:53:17.296Z,19.10
2023-05-17T14:55:44.859Z,19.00
2023-05-17T14:58:13.702Z,19.00
2023-05-17T15:00:42.054Z,19.00
2023-05-17T15:03:09.190Z,19.00
2023-05-17T15:05:36.513Z,19.00
2023-05-17T15:08:03.557Z,19.00
2023-05-17T15:10:30.520Z,19.10
2023-05-17T15:12:57.576Z,19.10
2023-05-17T15:15:24.687Z,19.10
2023-05-17T15:17:52.038Z,19.10
2023-05-17T15:20:20.294Z,19.10
2023-05-17T15:22:48.432Z,19.10
2023-05-17T15:25:16.217Z,19.10
2023-05-17T15:27:43.370Z,19.10
2023-05-17T15:30:13.283Z,19.10
2023-05-17T15:32:41.033Z,19.10
2023-05-17T15:35:08.255Z,19.10
2023-05-17T15:37:37.836Z,19.20
2023-05-17T15:40:09.604Z,19.10
2023-05-17T15:42:36.709Z,19.10
2023-05-17T15:45:03.725Z,19.10
2023-05-17T15:47:42.338Z,19.10
2023-05-17T15:50:10.821Z,19.10
2023-05-17T15:52:37.879Z,19.10
2023-05-17T15:55:05.093Z,19.10
2023-05-17T15:57:32.470Z,19.00
2023-05-17T15:59:59.507Z,19.00
2023-05-17T16:02:26.450Z,19.00
2023-05-17T16:04:53.400Z,19.00
2023-05-17T16:07:20.329Z,19.10
2023-05-17T16:09:47.328Z,19.00
2023-05-17T16:12:17.191Z,19.00
2023-05-17T16:14:45.000Z,19.00
2023-05-17T16:17:12.217Z,18.90
2023-05-17T16:19:39.259Z,18.90
2023-05-17T16:22:07.033Z,18.80
2023-05-17T16:24:33.979Z,18.90
2023-05-17T16:27:00.901Z,18.80
2023-05-17T16:29:27.866Z,18.70
2023-05-17T16:31:54.786Z,18.70
2023-05-17T16:34:21.773Z,18.60
2023-05-17T16:36:50.637Z,18.60
2023-05-17T16:39:17.640Z,18.50
2023-05-17T16:41:44.687Z,18.50
2023-05-17T16:44:11.655Z,18.50
2023-05-17T16:46:38.625Z,18.40
2023-05-17T16:49:07.261Z,18.40
2023-05-17T16:51:34.297Z,18.30
2023-05-17T16:54:01.295Z,18.40
2023-05-17T16:56:28.361Z,18.40
2023-05-17T16:59:03.799Z,18.40
2023-05-17T17:01:30.833Z,18.40
2023-05-17T17:03:58.255Z,18.40
2023-05-17T17:06:25.606Z,18.40
2023-05-17T17:08:53.130Z,18.30
2023-05-17T17:11:25.149Z,18.30
2023-05-17T17:13:52.544Z,18.30
2023-05-17T17:16:20.558Z,18.30
2023-05-17T17:18:47.647Z,18.30
2023-05-17T17:21:14.770Z,18.20
2023-05-17T17:23:43.169Z,18.20
2023-05-17T17:26:11.353Z,18.20
2023-05-17T17:28:38.489Z,18.20
2023-05-17T17:31:06.462Z,18.10
2023-05-17T17:33:33.693Z,18.10
2023-05-17T17:36:00.958Z,18.10
2023-05-17T17:38:27.914Z,18.00
2023-05-17T17:40:55.219Z,18.00
2023-05-17T17:43:23.868Z,18.00
2023-05-17T17:45:58.437Z,17.90
2023-05-17T17:48:25.775Z,17.90
2023-05-17T17:50:52.740Z,17.90
2023-05-17T17:53:19.815Z,17.80
2023-05-17T17:55:46.737Z,17.80
2023-05-17T17:58:13.805Z,17.80
2023-05-17T18:00:41.487Z,17.80
2023-05-17T18:03:08.515Z,17.70
2023-05-17T18:05:35.690Z,17.70
2023-05-17T18:08:02.768Z,17.70
2023-05-17T18:10:31.491Z,17.70
2023-05-17T18:12:58.686Z,17.70
2023-05-17T18:15:26.029Z,17.70
2023-05-17T18:17:54.884Z,17.60
2023-05-17T18:20:26.420Z,17.60
2023-05-17T18:22:53.491Z,17.60
2023-05-17T18:25:21.596Z,17.60
2023-05-17T18:27:48.636Z,17.50
2023-05-17T18:30:18.105Z,17.50
2023-05-17T18:32:45.194Z,17.50
2023-05-17T18:35:12.327Z,17.50
2023-05-17T18:37:39.268Z,17.40
2023-05-17T18:40:08.983Z,17.40
2023-05-17T18:42:36.012Z,17.30
2023-05-17T18:45:03.013Z,17.30
2023-05-17T18:47:29.984Z,17.30
2023-05-17T18:49:56.899Z,17.30
2023-05-17T18:52:23.946Z,17.20
2023-05-17T18:54:50.909Z,17.20
2023-05-17T18:57:17.940Z,17.20
2023-05-17T18:59:46.575Z,17.10
2023-05-17T19:02:14.587Z,17.10
2023-05-17T19:04:41.696Z,17.00
2023-05-17T19:07:08.750Z,17.00
2023-05-17T19:09:35.815Z,17.00
2023-05-17T19:12:02.895Z,16.90
2023-05-17T19:14:33.098Z,16.80
2023-05-17T19:17:02.627Z,16.80
2023-05-17T19:19:34.039Z,16.80
2023-05-17T19:22:11.058Z,16.70
2023-05-17T19:24:38.521Z,16.70
2023-05-17T19:27:05.973Z,16.70
2023-05-17T19:29:33.318Z,16.60
2023-05-17T19:32:00.522Z,16.60
2023-05-17T19:34:27.586Z,16.50
2023-05-17T19:36:54.651Z,16.50
2023-05-17T19:39:21.647Z,16.40
2023-05-17T19:41:48.701Z,16.40
2023-05-17T19:44:15.842Z,16.40
2023-05-17T19:46:43.033Z,16.40
2023-05-17T19:49:09.996Z,16.30
2023-05-17T19:51:36.992Z,16.30
2023-05-17T19:54:04.276Z,16.20
2023-05-17T19:56:31.316Z,16.20
2023-05-17T19:58:58.583Z,16.20
2023-05-17T20:01:25.927Z,16.10
2023-05-17T20:03:53.232Z,16.10
2023-05-17T20:06:20.364Z,16.10
2023-05-17T20:08:47.371Z,16.10
2023-05-17T20:11:14.447Z,16.00
2023-05-17T20:13:47.914Z,16.00
2023-05-17T20:16:15.035Z,15.90
2023-05-17T20:18:42.984Z,15.90
2023-05-17T20:21:11.788Z,15.80
2023-05-17T20:23:42.090Z,15.80
2023-05-17T20:26:19.251Z,15.70
2023-05-17T20:28:47.012Z,15.70
2023-05-17T20:31:14.441Z,15.60
2023-05-17T20:33:41.729Z,15.60
2023-05-17T20:36:11.753Z,15.60
2023-05-17T20:38:38.955Z,15.50
2023-05-17T20:41:15.243Z,15.50
2023-05-17T20:43:45.959Z,15.50
2023-05-17T20:46:21.465Z,15.40
2023-05-17T20:48:59.262Z,15.40
2023-05-17T20:51:30.487Z,15.40
2023-05-17T20:54:30.092Z,15.30
2023-05-17T20:57:01.952Z,15.30
2023-05-17T20:59:29.171Z,15.30
2023-05-17T21:01:56.689Z,15.30
2023-05-17T21:04:23.900Z,15.20
2023-05-17T21:06:52.357Z,15.20
2023-05-17T21:09:19.460Z,15.20
2023-05-17T21:11:46.571Z,15.20
2023-05-17T21:14:13.562Z,15.20
2023-05-17T21:16:40.666Z,15.10
2023-05-17T21:19:08.932Z,15.10
2023-05-17T21:21:36.957Z,15.10
2023-05-17T21:24:04.085Z,15.00
2023-05-17T21:26:31.298Z,15.00
2023-05-17T21:28:58.363Z,15.00
2023-05-17T21:31:31.840Z,15.00
2023-05-17T21:33:59.251Z,15.00
2023-05-17T21:36:34.949Z,15.00
2023-05-17T21:41:59.983Z,15.00
2023-05-17T21:47:42.167Z,14.90
2023-05-17T21:50:09.918Z,14.90
2023-05-17T21:52:37.188Z,14.90
2023-05-17T21:55:04.507Z,14.90
2023-05-17T21:57:33.140Z,14.90
2023-05-17T22:00:00.097Z,14.80
2023-05-17T22:02:27.192Z,14.80
2023-05-17T22:04:54.407Z,14.80
2023-05-17T22:07:21.449Z,14.80
2023-05-17T22:09:48.578Z,14.80
2023-05-17T22:12:15.771Z,14.80
2023-05-17T22:14:45.465Z,14.80
2023-05-17T22:17:12.683Z,14.80
2023-05-17T22:19:47.556Z,14.70
2023-05-17T22:22:14.567Z,14.70
2023-05-17T22:24:41.585Z,14.70
2023-05-17T22:27:08.546Z,14.70
2023-05-17T22:29:40.081Z,14.60
2023-05-17T22:32:08.110Z,14.60
2023-05-17T22:34:35.368Z,14.60
2023-05-17T22:37:02.789Z,14.60
2023-05-17T22:39:30.032Z,14.60
2023-05-17T22:41:57.132Z,14.60
2023-05-17T22:44:24.855Z,14.60
2023-05-17T22:46:57.806Z,14.60
2023-05-17T22:49:26.043Z,14.50
2023-05-17T22:51:53.607Z,14.50
2023-05-17T22:54:21.265Z,14.50
2023-05-17T22:56:48.351Z,14.50
2023-05-17T22:59:23.205Z,14.50
2023-05-17T23:01:50.934Z,14.50
2023-05-17T23:04:18.062Z,14.40
2023-05-17T23:06:45.166Z,14.40
2023-05-17T23:09:12.575Z,14.40
2023-05-17T23:11:41.203Z,14.40
2023-05-17T23:14:08.270Z,14.40
2023-05-17T23:16:36.154Z,14.40
2023-05-17T23:19:04.201Z,14.40
2023-05-17T23:21:33.390Z,14.40
2023-05-17T23:24:00.989Z,14.30
2023-05-17T23:26:28.808Z,14.30
2023-05-17T23:28:55.870Z,14.30
2023-05-17T23:31:23.045Z,14.30
2023-05-17T23:33:50.368Z,14.30
2023-05-17T23:36:17.499Z,14.30
2023-05-17T23:38:44.457Z,14.30
2023-05-17T23:41:17.497Z,14.30
2023-05-17T23:43:45.288Z,14.20
2023-05-17T23:46:13.814Z,14.20
2023-05-17T23:48:40.883Z,14.20
2023-05-17T23:51:09.355Z,14.20
2023-05-17T23:53:38.926Z,14.20
2023-05-17T23:56:06.104Z,14.20
2023-05-17T23:58:33.167Z,14.10
